EZY81A EGCC-EPKK
Flight info
| Callsign | EZY81A |
|---|---|
| Flight time | N/A |
| Altitude | 37000 |
| Route | DESIG1S DESIG L603 LAMSO DCT PETIK DCT AMSAN DCT KUMER DCT SULED L620 TALEG DCT OMELO DCT ODLIV DCT OMIFU DCT SOPAV DCT PADKA PADKA4G |
| Aircraft | A320/M-V/N |
Departure
| Time | 2026-04-30 17:59 |
|---|---|
| Airport | Manchester Airport (EGCC) |
Arrival
| Time | N/A |
|---|---|
| Airport | Kraków John Paul II International Airport (EPKK) |
| Time | Latitude | Longitude | Altitude | Speed | Heading |
|---|---|---|---|---|---|
| 2026-04-30 17:39 | 53.36193 | -2.27887 | 255 ft | 0 kts | 42° |
| 2026-04-30 17:48 | 53.36193 | -2.27888 | 255 ft | 0 kts | 42° |
| 2026-04-30 17:49 | 53.36149 | -2.27973 | 255 ft | 3 kts | 101° |
| 2026-04-30 17:50 | 53.36162 | -2.28012 | 255 ft | 0 kts | 135° |
| 2026-04-30 17:54 | 53.35923 | -2.27845 | 255 ft | 18 kts | 186° |
| 2026-04-30 17:55 | 53.35434 | -2.28159 | 241 ft | 23 kts | 190° |
| 2026-04-30 17:56 | 53.34898 | -2.28944 | 215 ft | 20 kts | 226° |
| 2026-04-30 17:57 | 53.34689 | -2.28913 | 211 ft | 17 kts | 51° |
| 2026-04-30 17:58 | 53.35830 | -2.26470 | 306 ft | 164 kts | 54° |
| 2026-04-30 17:59 | 53.38882 | -2.20132 | 2205 ft | 211 kts | 59° |
| 2026-04-30 18:00 | 53.43111 | -2.11090 | 4404 ft | 268 kts | 57° |
| 2026-04-30 18:00 | 53.46712 | -2.03457 | 6304 ft | 281 kts | 57° |
| 2026-04-30 18:01 | 53.49145 | -1.98299 | 7794 ft | 288 kts | 56° |
| 2026-04-30 18:02 | 53.52068 | -1.89611 | 9951 ft | 286 kts | 88° |
| 2026-04-30 18:02 | 53.51044 | -1.79683 | 11268 ft | 314 kts | 110° |
| 2026-04-30 18:03 | 53.48992 | -1.68151 | 11885 ft | 365 kts | 110° |
| 2026-04-30 18:04 | 53.46798 | -1.55710 | 13674 ft | 375 kts | 110° |
| 2026-04-30 18:05 | 53.43746 | -1.38700 | 15692 ft | 388 kts | 110° |
| 2026-04-30 18:06 | 53.40547 | -1.21084 | 17525 ft | 402 kts | 109° |
| 2026-04-30 18:07 | 53.37238 | -1.02897 | 19179 ft | 414 kts | 109° |
| 2026-04-30 18:08 | 53.34684 | -0.89072 | 20383 ft | 419 kts | 109° |
| 2026-04-30 18:09 | 53.31192 | -0.70333 | 21892 ft | 426 kts | 110° |
| 2026-04-30 18:10 | 53.27609 | -0.51260 | 23294 ft | 433 kts | 110° |
| 2026-04-30 18:11 | 53.23938 | -0.31935 | 24548 ft | 439 kts | 110° |
| 2026-04-30 18:11 | 53.21143 | -0.17319 | 25326 ft | 443 kts | 110° |
| 2026-04-30 18:12 | 53.18310 | -0.02650 | 26072 ft | 447 kts | 110° |
| 2026-04-30 18:13 | 53.16394 | 0.07255 | 26501 ft | 451 kts | 110° |
| 2026-04-30 18:13 | 53.13807 | 0.20463 | 27364 ft | 449 kts | 110° |
| 2026-04-30 18:14 | 53.11584 | 0.31733 | 28135 ft | 447 kts | 111° |
| 2026-04-30 18:15 | 53.08656 | 0.46510 | 29191 ft | 444 kts | 111° |
| 2026-04-30 18:15 | 53.05746 | 0.61123 | 30114 ft | 444 kts | 111° |
| 2026-04-30 18:16 | 53.03797 | 0.70845 | 30703 ft | 442 kts | 111° |
| 2026-04-30 18:16 | 53.01858 | 0.80455 | 31290 ft | 440 kts | 111° |
| 2026-04-30 18:17 | 53.00884 | 0.85257 | 31588 ft | 439 kts | 111° |
| 2026-04-30 18:17 | 52.99909 | 0.90049 | 31899 ft | 437 kts | 111° |
| 2026-04-30 18:17 | 52.97992 | 0.99584 | 32520 ft | 435 kts | 108° |
| 2026-04-30 18:18 | 52.97354 | 1.04512 | 32788 ft | 436 kts | 103° |
| 2026-04-30 18:18 | 52.96796 | 1.09453 | 33056 ft | 436 kts | 103° |
| 2026-04-30 18:18 | 52.96232 | 1.14387 | 33335 ft | 435 kts | 103° |
| 2026-04-30 18:18 | 52.95663 | 1.19314 | 33617 ft | 434 kts | 103° |
| 2026-04-30 18:19 | 52.95088 | 1.24218 | 33907 ft | 433 kts | 104° |
| 2026-04-30 18:19 | 52.94512 | 1.29115 | 34187 ft | 432 kts | 104° |
| 2026-04-30 18:19 | 52.93936 | 1.34000 | 34436 ft | 431 kts | 104° |
| 2026-04-30 18:19 | 52.93361 | 1.38873 | 34651 ft | 431 kts | 104° |
| 2026-04-30 18:20 | 52.92786 | 1.43752 | 34860 ft | 431 kts | 103° |
| 2026-04-30 18:20 | 52.92213 | 1.48625 | 35051 ft | 431 kts | 103° |
| 2026-04-30 18:20 | 52.91636 | 1.53504 | 35226 ft | 432 kts | 103° |
| 2026-04-30 18:20 | 52.91062 | 1.58320 | 35394 ft | 432 kts | 103° |
| 2026-04-30 18:21 | 52.90475 | 1.63199 | 35596 ft | 432 kts | 103° |
| 2026-04-30 18:21 | 52.89881 | 1.68115 | 35759 ft | 432 kts | 103° |
| 2026-04-30 18:21 | 52.89293 | 1.72967 | 35928 ft | 432 kts | 103° |
| 2026-04-30 18:21 | 52.88703 | 1.77846 | 36092 ft | 433 kts | 103° |
| 2026-04-30 18:22 | 52.88112 | 1.82736 | 36256 ft | 433 kts | 103° |
| 2026-04-30 18:22 | 52.86923 | 1.92501 | 36566 ft | 433 kts | 103° |
| 2026-04-30 18:22 | 52.86322 | 1.97390 | 36718 ft | 433 kts | 103° |
| 2026-04-30 18:23 | 52.85720 | 2.02276 | 36866 ft | 433 kts | 103° |
| 2026-04-30 18:23 | 52.85116 | 2.07159 | 37047 ft | 433 kts | 103° |
| 2026-04-30 18:23 | 52.84512 | 2.12029 | 37225 ft | 432 kts | 103° |
| 2026-04-30 18:23 | 52.83905 | 2.16905 | 37283 ft | 434 kts | 104° |
| 2026-04-30 18:24 | 52.82064 | 2.31578 | 37287 ft | 435 kts | 104° |
| 2026-04-30 18:25 | 52.80831 | 2.41288 | 37288 ft | 435 kts | 104° |
| 2026-04-30 18:25 | 52.78952 | 2.55946 | 37291 ft | 434 kts | 103° |
| 2026-04-30 18:26 | 52.77072 | 2.70576 | 37280 ft | 434 kts | 104° |
| 2026-04-30 18:27 | 52.75153 | 2.85187 | 37289 ft | 434 kts | 104° |
| 2026-04-30 18:28 | 52.73242 | 2.99797 | 37280 ft | 434 kts | 103° |
| 2026-04-30 18:28 | 52.71791 | 3.14500 | 37291 ft | 435 kts | 99° |
| 2026-04-30 18:29 | 52.70082 | 3.34258 | 37298 ft | 435 kts | 100° |
| 2026-04-30 18:30 | 52.68188 | 3.53928 | 37295 ft | 434 kts | 100° |
| 2026-04-30 18:31 | 52.66762 | 3.68681 | 37304 ft | 434 kts | 100° |
| 2026-04-30 18:32 | 52.65325 | 3.83410 | 37320 ft | 434 kts | 100° |
| 2026-04-30 18:33 | 52.63871 | 3.98101 | 37309 ft | 433 kts | 100° |
| 2026-04-30 18:33 | 52.62400 | 4.12700 | 37305 ft | 433 kts | 100° |
| 2026-04-30 18:34 | 52.60770 | 4.27306 | 37318 ft | 432 kts | 103° |
| 2026-04-30 18:35 | 52.59341 | 4.36855 | 37319 ft | 432 kts | 105° |
| 2026-04-30 18:35 | 52.57830 | 4.46420 | 37321 ft | 432 kts | 105° |
| 2026-04-30 18:36 | 52.55880 | 4.59245 | 37325 ft | 432 kts | 104° |
| 2026-04-30 18:37 | 52.53740 | 4.73561 | 37324 ft | 432 kts | 104° |
| 2026-04-30 18:37 | 52.52292 | 4.83133 | 37319 ft | 432 kts | 104° |
| 2026-04-30 18:38 | 52.50827 | 4.92695 | 37327 ft | 432 kts | 104° |
| 2026-04-30 18:38 | 52.49354 | 5.02264 | 37326 ft | 432 kts | 104° |
| 2026-04-30 18:39 | 52.47874 | 5.11818 | 37339 ft | 432 kts | 104° |
| 2026-04-30 18:39 | 52.46386 | 5.21356 | 37326 ft | 432 kts | 104° |
| 2026-04-30 18:40 | 52.44898 | 5.30880 | 37341 ft | 431 kts | 104° |
| 2026-04-30 18:40 | 52.43449 | 5.40092 | 37327 ft | 431 kts | 104° |
| 2026-04-30 18:41 | 52.41947 | 5.49551 | 37326 ft | 431 kts | 104° |
| 2026-04-30 18:41 | 52.40437 | 5.59054 | 37333 ft | 431 kts | 104° |
| 2026-04-30 18:42 | 52.38916 | 5.68555 | 37333 ft | 431 kts | 104° |
| 2026-04-30 18:42 | 52.36620 | 5.82798 | 37346 ft | 431 kts | 104° |
| 2026-04-30 18:45 | 52.28050 | 6.34886 | 37358 ft | 432 kts | 104° |
| 2026-04-30 18:46 | 52.26465 | 6.44369 | 37356 ft | 433 kts | 104° |